Alyeska Resort
Hourly Weather - Mid Mountian Site
ALY_MID_HR 10/21/2017
CLICK TO VIEW GRAPH!!

        DATE  TIME   Air   H2o   H2o   New  Snow  BATT   Rel
                    Temp  Inch Since  Snow Depth  Volt  Hum%
                      F   1HR  0600   1HR         AVG   AVG

  10/21/2017 12:00    23  0.02  0.03   1.1  0.00 13.54    95
  10/21/2017 11:00    22  0.01  0.01   0.4  0.00 13.55    96
  10/21/2017 10:00    22  0.00  0.00   0.1  0.00 13.55    96
  10/21/2017 09:00    21  0.00  0.00   0.1  0.00 13.54    95
  10/21/2017 08:00    22  0.00  0.00  -0.2  0.00 13.54    94
  10/21/2017 07:00    23  0.00  0.00  -0.4  0.00 13.53    95
  10/21/2017 06:00    23  0.00  0.04  -0.1  0.00 13.53    95
  10/21/2017 05:00    23  0.01  0.04   0.1  0.00 13.53    94
  10/21/2017 04:00    23  0.01  0.03   0.1  0.00 13.54    93
  10/21/2017 03:00    23  0.02  0.02  -0.3  0.00 13.54    88
  10/21/2017 02:00    22  0.00  0.00  -0.5  0.00 13.54    80
  10/21/2017 01:00    22  0.00  0.00  -0.5  0.00 13.54    77
  10/20/2017 24:00    22  0.00  0.00  -0.5  0.00 13.55    76
  10/20/2017 23:00    22  0.00  0.00  -0.5  0.00 13.55    80
  10/20/2017 22:00    21  0.00  0.00  -0.5  0.00 13.54    79
  10/20/2017 21:00    21  0.00  0.00  -0.5  0.00 13.54    80
  10/20/2017 20:00    21  0.00  0.00  -0.5  0.00 13.53    78
  10/20/2017 19:00    22  0.00  0.00  -0.5  0.00 13.52    71
  10/20/2017 18:00    23  0.00  0.00  -0.7  0.00 13.51    68
  10/20/2017 17:00    24  0.00  0.00  -0.5182.90 13.52    65
  10/20/2017 16:00    23  0.00  0.00  -0.4182.50 13.56    61
  10/20/2017 15:00    23  0.00  0.00  -0.5182.40 13.61    56
  10/20/2017 14:00    18  0.00  0.00  -0.4183.00 13.65    63
  10/20/2017 13:00    17  0.00  0.00  -0.4  0.00 13.66    71


CLICK TO VIEW GRAPH!!